Orpha, Wyoming
Current Conditions -  °F | °C
As of 1:53 AM on Thursday 18 Dec 2014 (Local Time) from KDGW Reporting Station
Clear Clear  
Wind Chill:   Ceiling: Unl
Heat Index:   Visibility: 10mi
Dew Point:   Wind: 0mph
Humidity: 80%   Direction: NA
Pressure: 29.98"   Gusts: NA
Location:  42.75°N, 105.38°W
Report Text: KDGW 180853Z AUTO 00000KT 10SM CLR M13/M16 A2998 RMK AO2 SLP191 I1000 I3000 T11281156 55002
Loading
Personal Weather Stations






























Interactive Weather Map New forecast layout! Learn more

10-Day Weather Forecast

Advertisements
Track Severe Weather on mobile